Time;durP1;ratioP1;P1;durP2;ratioP2;P2;SDS_P1;SDS_P2;PMS_P1;PMS_P2;Temp;Humidity;BMP_temperature;BMP_pressure;BME280_temperature;BME280_humidity;BME280_pressure;Samples;Min_cycle;Max_cycle;Signal;HPM_P1;HPM_P2
2023/07/20 00:01:26;;;;;;;9.43;8.87;;;17.10;99.90;;;;;;5063172;28;20150;-47
2023/07/20 00:03:57;;;;;;;11.33;10.73;;;17.10;99.90;;;;;;5062368;28;20172;-47
2023/07/20 00:06:25;;;;;;;6.77;6.37;;;17.10;99.90;;;;;;5062356;28;20192;-47
2023/07/20 00:08:51;;;;;;;9.53;9.00;;;17.00;99.90;;;;;;5062298;28;20271;-46
2023/07/20 00:11:17;;;;;;;8.40;8.00;;;17.00;99.90;;;;;;5079595;28;20470;-46
2023/07/20 00:13:43;;;;;;;8.07;7.67;;;17.00;99.90;;;;;;5061460;28;20168;-49
2023/07/20 00:16:08;;;;;;;8.50;8.10;;;17.10;99.90;;;;;;5061458;28;20442;-50
2023/07/20 00:18:34;;;;;;;7.73;7.33;;;17.00;99.90;;;;;;5062379;28;20281;-47
2023/07/20 00:21:00;;;;;;;7.73;7.33;;;17.10;99.90;;;;;;5061466;28;20180;-44
2023/07/20 00:23:26;;;;;;;9.53;9.03;;;17.10;99.90;;;;;;5062450;28;20181;-45
2023/07/20 00:25:51;;;;;;;10.80;10.03;;;17.10;99.90;;;;;;5062794;28;20293;-45
2023/07/20 00:28:17;;;;;;;8.77;8.27;;;17.10;99.90;;;;;;5062592;28;20173;-52
2023/07/20 00:30:42;;;;;;;12.17;11.37;;;17.10;99.90;;;;;;5080593;28;20215;-49
2023/07/20 00:33:11;;;;;;;13.07;11.97;;;17.10;99.90;;;;;;5062934;28;20168;-47
2023/07/20 00:35:38;;;;;;;12.87;12.23;;;17.10;99.90;;;;;;5080083;28;20249;-50
2023/07/20 00:38:04;;;;;;;10.33;9.70;;;17.10;99.90;;;;;;5062597;28;20177;-45
2023/07/20 00:40:40;;;;;;;8.93;8.33;;;17.00;99.90;;;;;;5079553;28;20168;-46
2023/07/20 00:43:06;;;;;;;8.50;7.90;;;17.00;99.90;;;;;;5081762;28;20438;-47
2023/07/20 00:45:33;;;;;;;10.67;10.10;;;17.10;99.90;;;;;;5081943;28;20211;-45
2023/07/20 00:48:00;;;;;;;9.23;8.63;;;17.10;99.90;;;;;;5081941;28;20225;-47
2023/07/20 00:50:28;;;;;;;9.73;9.23;;;17.10;99.90;;;;;;5081952;28;20175;-45
2023/07/20 00:52:54;;;;;;;7.87;7.37;;;17.10;99.90;;;;;;5098823;28;20160;-52
2023/07/20 00:55:20;;;;;;;7.00;6.50;;;17.10;99.90;;;;;;5081510;28;20209;-45
2023/07/20 00:57:47;;;;;;;5.67;5.37;;;17.10;99.90;;;;;;5082409;28;20176;-45
2023/07/20 01:00:13;;;;;;;4.17;3.87;;;17.10;99.90;;;;;;5082007;28;20167;-45
2023/07/20 01:02:38;;;;;;;3.47;3.20;;;17.10;99.90;;;;;;5099423;28;20175;-48
2023/07/20 01:05:06;;;;;;;3.30;3.20;;;17.10;99.90;;;;;;5099631;28;20278;-50
2023/07/20 01:07:38;;;;;;;2.60;2.40;;;17.00;99.90;;;;;;5082633;28;20167;-45
2023/07/20 01:10:14;;;;;;;5.03;2.20;;;16.90;99.90;;;;;;5081689;28;20168;-52
2023/07/20 01:12:51;;;;;;;3.57;2.57;;;16.90;99.90;;;;;;5082117;28;20889;-46
2023/07/20 01:15:17;;;;;;;8.37;7.97;;;16.90;99.90;;;;;;5081955;28;20174;-48
2023/07/20 01:17:44;;;;;;;12.43;11.77;;;16.80;99.90;;;;;;5081604;28;20172;-50
2023/07/20 01:20:13;;;;;;;6.43;6.13;;;16.80;99.90;;;;;;5080973;28;20699;-51
2023/07/20 01:23:38;;;;;;;4.90;4.60;;;16.80;99.90;;;;;;5080954;28;20622;-49
2023/07/20 01:26:37;;;;;;;7.80;7.13;;;16.80;99.90;;;;;;5026419;28;20227;-46
2023/07/20 01:29:43;;;;;;;8.07;7.57;;;16.80;99.90;;;;;;5099321;28;20172;-45
2023/07/20 01:32:10;;;;;;;6.57;6.07;;;16.70;99.90;;;;;;5099466;28;20176;-46
2023/07/20 01:34:37;;;;;;;6.50;6.20;;;16.70;99.90;;;;;;5082537;28;20168;-48
2023/07/20 01:37:04;;;;;;;14.37;13.67;;;16.70;99.90;;;;;;5099983;28;20164;-46
2023/07/20 01:39:33;;;;;;;10.83;10.23;;;16.70;99.90;;;;;;5081850;28;20190;-47
2023/07/20 01:41:59;;;;;;;14.83;14.03;;;16.60;99.90;;;;;;5099775;28;20168;-46
2023/07/20 01:44:24;;;;;;;27.87;26.30;;;16.60;99.90;;;;;;5068512;28;20237;-45
2023/07/20 01:46:56;;;;;;;26.03;24.53;;;16.60;99.90;;;;;;5061806;28;20176;-48
2023/07/20 01:49:22;;;;;;;24.77;23.57;;;16.60;99.90;;;;;;5061418;28;20262;-47
2023/07/20 01:51:47;;;;;;;9.73;8.93;;;16.60;99.90;;;;;;5061168;28;20408;-45
2023/07/20 01:54:13;;;;;;;7.60;7.17;;;16.60;99.90;;;;;;5078851;28;20446;-47
2023/07/20 01:56:39;;;;;;;8.70;8.10;;;16.60;99.90;;;;;;5061713;28;20175;-47
2023/07/20 01:59:04;;;;;;;9.70;9.17;;;16.50;99.90;;;;;;5062080;28;20195;-49
2023/07/20 02:01:30;;;;;;;5.93;5.63;;;16.40;99.90;;;;;;5078835;28;20234;-45
2023/07/20 02:03:56;;;;;;;6.50;5.97;;;16.50;99.90;;;;;;5060744;28;20280;-46
2023/07/20 02:06:22;;;;;;;8.50;8.00;;;16.50;99.90;;;;;;5061113;28;20165;-47
2023/07/20 02:08:48;;;;;;;8.83;8.33;;;16.50;99.90;;;;;;5060951;28;20230;-46
2023/07/20 02:11:13;;;;;;;8.53;8.03;;;16.50;99.90;;;;;;5060527;28;20589;-46
2023/07/20 02:13:39;;;;;;;8.20;7.50;;;16.50;99.90;;;;;;5059670;28;20173;-45
2023/07/20 02:16:05;;;;;;;8.30;7.90;;;16.50;99.90;;;;;;5056546;28;20632;-50
2023/07/20 02:18:30;;;;;;;7.67;7.23;;;16.50;99.90;;;;;;5073640;28;20176;-48
2023/07/20 02:20:56;;;;;;;6.63;6.27;;;16.50;99.90;;;;;;5075649;28;20568;-45
2023/07/20 02:23:22;;;;;;;6.23;5.90;;;16.60;99.90;;;;;;5060401;28;20183;-44
2023/07/20 02:25:48;;;;;;;6.70;6.30;;;16.60;99.90;;;;;;5077853;28;20196;-47
2023/07/20 02:28:14;;;;;;;5.83;5.33;;;16.60;99.90;;;;;;5060655;28;20173;-45
2023/07/20 02:30:40;;;;;;;5.57;5.17;;;16.50;99.90;;;;;;5060901;28;20164;-47
2023/07/20 02:33:06;;;;;;;5.93;5.53;;;16.50;99.90;;;;;;5060975;28;20230;-51
2023/07/20 02:35:32;;;;;;;6.50;6.10;;;16.50;99.90;;;;;;5060959;28;20165;-47
2023/07/20 02:37:58;;;;;;;7.07;6.60;;;16.40;99.90;;;;;;5078753;28;20447;-46
2023/07/20 02:40:23;;;;;;;6.90;6.50;;;16.40;99.90;;;;;;5060965;28;20172;-45
2023/07/20 02:42:49;;;;;;;7.60;7.20;;;16.40;99.90;;;;;;5077773;28;20230;-44
2023/07/20 02:45:15;;;;;;;7.23;6.73;;;16.40;99.90;;;;;;5080446;28;20223;-47
2023/07/20 02:47:40;;;;;;;8.00;7.60;;;16.40;99.90;;;;;;5098149;28;20213;-49
2023/07/20 02:50:07;;;;;;;7.73;7.17;;;16.40;99.90;;;;;;5097694;28;20178;-47
2023/07/20 02:52:40;;;;;;;8.07;7.57;;;16.40;99.90;;;;;;5097908;28;20528;-49
2023/07/20 02:55:06;;;;;;;8.87;8.47;;;16.40;99.90;;;;;;5080171;28;20506;-49
2023/07/20 02:57:32;;;;;;;9.10;8.70;;;16.40;99.90;;;;;;5097997;28;20172;-45
2023/07/20 02:59:58;;;;;;;9.93;9.40;;;16.40;99.90;;;;;;5080668;28;20237;-45
2023/07/20 03:02:23;;;;;;;9.23;8.73;;;16.40;99.90;;;;;;5080067;28;20179;-47
2023/07/20 03:04:49;;;;;;;8.13;7.73;;;16.40;99.90;;;;;;5080306;28;20192;-49
2023/07/20 03:07:14;;;;;;;8.37;7.77;;;16.40;99.90;;;;;;5077775;28;20220;-47
2023/07/20 03:09:40;;;;;;;8.57;8.07;;;16.30;99.90;;;;;;5095991;28;20172;-48
2023/07/20 03:12:07;;;;;;;9.00;8.43;;;16.30;99.90;;;;;;5077208;28;20176;-47
2023/07/20 03:14:32;;;;;;;9.23;8.73;;;16.30;99.90;;;;;;5076649;28;20552;-46
2023/07/20 03:16:58;;;;;;;9.43;8.93;;;16.30;99.90;;;;;;5094073;28;20178;-45
2023/07/20 03:19:24;;;;;;;9.27;8.87;;;16.20;99.90;;;;;;5076932;28;20168;-48
2023/07/20 03:21:50;;;;;;;12.60;11.77;;;16.20;99.90;;;;;;5079523;28;20633;-44
2023/07/20 03:24:16;;;;;;;11.23;10.67;;;16.20;99.90;;;;;;5079992;28;20195;-49
2023/07/20 03:26:42;;;;;;;11.83;11.23;;;16.20;99.90;;;;;;5079270;28;20164;-45
2023/07/20 03:29:08;;;;;;;10.40;9.90;;;16.30;99.90;;;;;;5097503;28;20198;-45
2023/07/20 03:31:34;;;;;;;11.23;10.63;;;16.20;99.90;;;;;;5079514;28;20168;-44
2023/07/20 03:34:00;;;;;;;11.27;10.67;;;16.20;99.90;;;;;;5079707;28;20258;-45
2023/07/20 03:36:25;;;;;;;11.63;10.93;;;16.20;99.90;;;;;;5079793;28;20172;-48
2023/07/20 03:38:51;;;;;;;12.80;12.00;;;16.20;99.90;;;;;;5079660;28;20168;-47
2023/07/20 03:41:17;;;;;;;12.27;11.67;;;16.20;99.90;;;;;;5080164;28;20262;-48
2023/07/20 03:43:42;;;;;;;12.50;11.90;;;16.20;99.90;;;;;;5071923;28;20233;-45
2023/07/20 03:46:08;;;;;;;13.27;12.67;;;16.20;99.90;;;;;;5059558;28;20196;-46
2023/07/20 03:48:34;;;;;;;11.20;10.53;;;16.20;99.90;;;;;;5059520;28;20165;-47
2023/07/20 03:51:00;;;;;;;11.97;11.37;;;16.20;99.90;;;;;;5076872;28;20161;-46
2023/07/20 03:53:25;;;;;;;12.13;11.43;;;16.20;99.90;;;;;;5059092;28;20165;-48
2023/07/20 03:55:52;;;;;;;12.93;12.27;;;16.20;99.90;;;;;;5059898;28;20173;-47
2023/07/20 03:58:19;;;;;;;12.80;12.07;;;16.10;99.90;;;;;;5077145;28;20183;-47
2023/07/20 04:00:48;;;;;;;12.03;11.33;;;16.10;99.90;;;;;;5059709;28;20204;-48
2023/07/20 04:03:14;;;;;;;12.97;12.30;;;16.20;99.90;;;;;;5077207;28;20197;-46
2023/07/20 04:05:40;;;;;;;11.93;11.33;;;16.20;99.90;;;;;;5059792;28;20196;-44
2023/07/20 04:08:05;;;;;;;10.90;10.40;;;16.20;99.90;;;;;;5059861;28;20173;-48
2023/07/20 04:10:31;;;;;;;13.87;13.17;;;16.20;99.90;;;;;;5059694;28;20304;-44
2023/07/20 04:12:57;;;;;;;14.30;13.50;;;16.20;99.90;;;;;;5076202;28;20602;-47
2023/07/20 04:15:22;;;;;;;13.27;12.47;;;16.20;99.90;;;;;;5058951;28;20655;-48
2023/07/20 04:17:48;;;;;;;15.17;14.30;;;16.20;99.90;;;;;;5058607;28;20205;-45
2023/07/20 04:20:14;;;;;;;15.27;14.57;;;16.20;99.90;;;;;;5075441;28;20211;-46
2023/07/20 04:22:39;;;;;;;12.63;11.93;;;16.20;99.90;;;;;;5058557;28;20173;-46
2023/07/20 04:25:05;;;;;;;14.60;13.60;;;16.20;99.90;;;;;;5058407;28;20216;-44
2023/07/20 04:27:31;;;;;;;17.17;16.17;;;16.10;99.90;;;;;;5058718;28;20172;-44
2023/07/20 04:29:59;;;;;;;15.90;15.03;;;16.00;99.90;;;;;;5058576;28;20227;-51
2023/07/20 04:32:26;;;;;;;15.27;14.57;;;16.10;99.90;;;;;;5059030;28;20592;-50
2023/07/20 04:34:51;;;;;;;16.90;16.10;;;16.10;99.90;;;;;;5058397;28;20172;-51
2023/07/20 04:37:17;;;;;;;17.60;16.77;;;16.20;99.90;;;;;;5058707;28;20184;-45
2023/07/20 04:39:42;;;;;;;17.73;16.87;;;16.10;99.90;;;;;;5058501;28;20177;-46
2023/07/20 04:42:08;;;;;;;17.37;16.37;;;16.20;99.90;;;;;;5058727;28;20547;-49
2023/07/20 04:44:34;;;;;;;18.17;17.27;;;16.20;99.90;;;;;;5091305;28;20239;-44
2023/07/20 04:47:03;;;;;;;17.53;16.63;;;16.20;99.90;;;;;;5082174;28;20237;-48
2023/07/20 04:49:28;;;;;;;19.00;17.67;;;16.20;99.90;;;;;;5100006;28;20160;-46
2023/07/20 04:51:54;;;;;;;18.50;17.53;;;16.20;99.90;;;;;;5082224;28;20171;-46
2023/07/20 04:54:20;;;;;;;18.27;17.37;;;16.20;99.90;;;;;;5082473;28;20172;-49
2023/07/20 04:56:45;;;;;;;18.60;17.60;;;16.20;99.90;;;;;;5099746;28;20247;-47
2023/07/20 04:59:11;;;;;;;17.87;16.97;;;16.20;99.90;;;;;;5082568;28;20245;-49
2023/07/20 05:01:37;;;;;;;17.20;16.40;;;16.20;99.90;;;;;;5099777;28;20152;-46
2023/07/20 05:04:02;;;;;;;16.80;15.90;;;16.20;99.90;;;;;;5082104;28;20211;-47
2023/07/20 05:06:28;;;;;;;17.20;16.30;;;16.20;99.90;;;;;;5081759;28;20172;-45
2023/07/20 05:08:54;;;;;;;16.07;15.20;;;16.20;99.90;;;;;;5081795;28;20175;-48
2023/07/20 05:11:19;;;;;;;18.47;17.57;;;16.20;99.90;;;;;;5081495;28;20168;-45
2023/07/20 05:13:45;;;;;;;19.00;18.10;;;16.20;99.90;;;;;;5080717;28;20175;-49
2023/07/20 05:16:11;;;;;;;18.87;17.97;;;16.20;99.90;;;;;;5080427;28;20176;-44
2023/07/20 05:18:36;;;;;;;16.80;16.00;;;16.30;99.90;;;;;;5080702;28;20175;-47
2023/07/20 05:21:02;;;;;;;17.73;16.87;;;16.30;99.90;;;;;;5080542;28;20537;-44
2023/07/20 05:23:28;;;;;;;19.27;18.27;;;16.30;99.90;;;;;;5079879;28;20171;-47
2023/07/20 05:25:57;;;;;;;19.17;18.17;;;16.30;99.90;;;;;;5097706;28;20196;-48
2023/07/20 05:28:24;;;;;;;18.80;17.87;;;16.30;99.90;;;;;;5099121;28;20166;-46
2023/07/20 05:30:54;;;;;;;19.87;18.77;;;16.30;99.90;;;;;;5099249;28;20659;-46
2023/07/20 05:33:20;;;;;;;22.70;21.60;;;16.40;99.90;;;;;;5098241;28;20529;-45
2023/07/20 05:35:47;;;;;;;18.70;17.80;;;16.40;99.90;;;;;;5081317;28;20434;-46
2023/07/20 05:38:13;;;;;;;18.67;17.67;;;16.40;99.90;;;;;;5080503;28;20262;-46
2023/07/20 05:40:41;;;;;;;16.67;15.77;;;16.40;99.90;;;;;;5080845;28;20210;-46
2023/07/20 05:43:06;;;;;;;17.20;16.23;;;16.40;99.90;;;;;;5097966;28;20172;-47
2023/07/20 05:45:32;;;;;;;17.33;16.47;;;16.40;99.90;;;;;;5079391;28;20265;-49
2023/07/20 05:47:57;;;;;;;15.33;14.43;;;16.40;99.90;;;;;;5079426;28;20164;-46
2023/07/20 05:50:23;;;;;;;11.87;11.23;;;16.40;99.90;;;;;;5097025;28;20168;-45
2023/07/20 05:52:48;;;;;;;14.43;13.63;;;16.40;99.90;;;;;;5079113;28;20394;-45
2023/07/20 05:55:14;;;;;;;15.37;14.47;;;16.50;99.90;;;;;;5079997;28;20263;-45
2023/07/20 05:57:41;;;;;;;14.03;13.23;;;16.50;99.90;;;;;;5080030;28;20176;-46
2023/07/20 06:00:08;;;;;;;14.03;13.13;;;16.50;99.90;;;;;;5079528;28;20637;-46
2023/07/20 06:02:34;;;;;;;17.40;16.50;;;16.50;99.90;;;;;;5080293;28;20267;-45
2023/07/20 06:05:00;;;;;;;10.43;9.83;;;16.60;99.90;;;;;;5097169;28;20283;-45
2023/07/20 06:07:26;;;;;;;8.67;8.27;;;16.60;99.90;;;;;;5095596;28;20176;-45
2023/07/20 06:09:52;;;;;;;7.43;6.93;;;16.60;99.90;;;;;;5077579;28;20164;-44
2023/07/20 06:12:18;;;;;;;9.30;8.70;;;16.60;99.90;;;;;;5076086;28;20183;-44
2023/07/20 06:14:43;;;;;;;7.17;6.20;;;16.60;99.90;;;;;;5076584;28;20176;-43
2023/07/20 06:17:09;;;;;;;7.63;7.03;;;16.60;99.90;;;;;;5095102;28;20167;-48
2023/07/20 06:19:35;;;;;;;7.47;7.00;;;16.60;99.90;;;;;;5075314;28;20175;-45
2023/07/20 06:22:01;;;;;;;9.83;9.00;;;16.70;99.90;;;;;;5077584;28;20172;-48
2023/07/20 06:24:26;;;;;;;11.20;10.43;;;16.70;99.90;;;;;;5075957;28;20369;-45
2023/07/20 06:26:52;;;;;;;8.10;7.60;;;16.70;99.90;;;;;;5077045;28;20160;-44
2023/07/20 06:29:17;;;;;;;12.20;11.20;;;16.80;99.90;;;;;;5076681;28;20168;-47
2023/07/20 06:31:43;;;;;;;8.97;8.57;;;16.80;99.90;;;;;;5076715;28;20175;-47
2023/07/20 06:34:08;;;;;;;5.80;5.40;;;16.80;99.90;;;;;;5077540;28;20195;-46
2023/07/20 06:36:35;;;;;;;5.13;4.83;;;16.80;99.90;;;;;;5077936;28;20175;-44
2023/07/20 06:39:00;;;;;;;5.80;5.40;;;16.80;99.90;;;;;;5077040;28;20671;-44
2023/07/20 06:41:26;;;;;;;5.70;5.20;;;16.90;99.90;;;;;;5093935;28;20714;-45
2023/07/20 06:43:52;;;;;;;6.50;6.10;;;16.90;99.90;;;;;;5067079;28;20339;-45
2023/07/20 06:46:18;;;;;;;6.03;5.53;;;16.90;99.90;;;;;;5055988;28;20303;-45
2023/07/20 06:48:43;;;;;;;6.03;5.53;;;17.00;99.90;;;;;;5055466;28;20325;-44
2023/07/20 06:51:09;;;;;;;9.23;8.63;;;17.10;99.90;;;;;;5055115;28;20236;-44
2023/07/20 06:53:34;;;;;;;9.53;8.93;;;17.20;99.90;;;;;;5056253;28;20169;-48
2023/07/20 06:56:00;;;;;;;13.77;12.97;;;17.20;99.90;;;;;;5054754;28;20181;-44
2023/07/20 06:58:26;;;;;;;22.77;21.47;;;17.20;99.90;;;;;;5072329;28;20183;-45
2023/07/20 07:00:52;;;;;;;16.93;15.83;;;17.20;99.90;;;;;;5055171;28;20191;-49
2023/07/20 07:03:17;;;;;;;20.60;19.27;;;17.10;99.90;;;;;;5054989;28;20717;-44
2023/07/20 07:05:45;;;;;;;17.30;16.20;;;17.10;99.90;;;;;;5055407;28;20223;-44
2023/07/20 07:08:11;;;;;;;20.73;19.67;;;17.10;99.90;;;;;;5056340;28;20169;-46
2023/07/20 07:10:37;;;;;;;19.23;18.10;;;17.10;99.90;;;;;;5056642;28;20195;-49
2023/07/20 07:13:03;;;;;;;11.27;10.57;;;17.10;99.90;;;;;;5055376;28;20180;-45
2023/07/20 07:15:29;;;;;;;9.87;9.37;;;17.10;99.90;;;;;;5056356;28;20271;-47
2023/07/20 07:17:55;;;;;;;15.03;14.17;;;17.10;99.90;;;;;;5074294;28;20171;-45
2023/07/20 07:20:23;;;;;;;11.17;10.57;;;17.10;99.90;;;;;;5056546;28;20180;-47
2023/07/20 07:22:50;;;;;;;4.43;3.60;;;17.20;99.90;;;;;;5056545;28;20175;-46
2023/07/20 07:25:16;;;;;;;9.30;8.70;;;17.30;99.90;;;;;;5074680;28;20219;-46
2023/07/20 07:27:42;;;;;;;15.40;14.63;;;17.40;99.90;;;;;;5057394;28;20191;-46
2023/07/20 07:30:07;;;;;;;16.40;15.40;;;17.40;99.90;;;;;;5057578;28;20165;-44
2023/07/20 07:32:33;;;;;;;15.77;14.83;;;17.50;99.90;;;;;;5056616;28;20169;-45
2023/07/20 07:35:00;;;;;;;15.70;14.57;;;17.50;99.90;;;;;;5074652;28;20191;-45
2023/07/20 07:37:25;;;;;;;16.00;14.93;;;17.50;99.90;;;;;;5074361;28;20164;-45
2023/07/20 07:39:51;;;;;;;14.23;13.33;;;17.60;99.90;;;;;;5056629;28;20199;-45
2023/07/20 07:42:18;;;;;;;16.63;15.53;;;17.60;99.90;;;;;;5057011;28;20489;-47
2023/07/20 07:44:44;;;;;;;18.67;17.73;;;17.60;99.90;;;;;;5087881;28;20318;-44
2023/07/20 07:47:09;;;;;;;18.23;17.03;;;17.60;99.90;;;;;;5094468;28;20305;-44
2023/07/20 07:49:35;;;;;;;16.77;15.80;;;17.50;99.90;;;;;;5076672;28;20164;-44
2023/07/20 07:52:02;;;;;;;19.20;17.77;;;17.50;99.90;;;;;;5074749;28;20172;-46
2023/07/20 07:54:28;;;;;;;13.17;12.47;;;17.40;99.90;;;;;;5093249;28;20179;-46
2023/07/20 07:56:54;;;;;;;18.03;16.90;;;17.30;99.90;;;;;;5075005;28;20174;-46
2023/07/20 07:59:19;;;;;;;11.43;10.63;;;17.30;99.90;;;;;;5075174;28;20180;-46
2023/07/20 08:01:45;;;;;;;10.97;10.17;;;17.30;99.90;;;;;;5092779;28;20183;-46
2023/07/20 08:04:11;;;;;;;12.43;11.43;;;17.40;99.90;;;;;;5074856;28;20233;-48
2023/07/20 08:06:37;;;;;;;18.10;16.83;;;17.50;99.90;;;;;;5074503;28;20169;-45
2023/07/20 08:09:03;;;;;;;18.00;17.00;;;17.60;99.90;;;;;;5074196;28;20169;-45
2023/07/20 08:11:30;;;;;;;15.20;14.10;;;17.60;99.90;;;;;;5092440;28;20184;-46
2023/07/20 08:13:56;;;;;;;9.27;7.83;;;17.60;99.90;;;;;;5089837;28;20503;-48
2023/07/20 08:16:22;;;;;;;8.70;7.90;;;17.70;99.90;;;;;;5068614;28;20354;-46
2023/07/20 08:18:48;;;;;;;9.50;8.70;;;17.70;99.90;;;;;;5088639;28;20750;-45
2023/07/20 08:21:13;;;;;;;9.00;8.33;;;17.70;99.90;;;;;;5080193;28;20571;-45
2023/07/20 08:23:40;;;;;;;9.03;8.37;;;17.70;99.90;;;;;;5078712;28;20497;-46
2023/07/20 08:26:09;;;;;;;5.00;4.43;;;17.70;99.90;;;;;;5097694;28;20192;-47
2023/07/20 08:28:35;;;;;;;6.27;5.80;;;17.80;99.90;;;;;;5079222;28;20263;-46
2023/07/20 08:31:00;;;;;;;7.70;5.43;;;17.80;99.90;;;;;;5079112;28;20278;-47
2023/07/20 08:33:29;;;;;;;4.33;3.93;;;17.90;99.90;;;;;;5078621;28;20164;-47
2023/07/20 08:35:56;;;;;;;3.67;3.37;;;18.00;99.90;;;;;;5095739;28;20210;-48
2023/07/20 08:38:21;;;;;;;3.70;3.03;;;18.00;99.90;;;;;;5077442;28;20470;-46
2023/07/20 08:40:47;;;;;;;4.67;3.53;;;18.00;99.90;;;;;;5078106;28;20741;-45
2023/07/20 08:43:18;;;;;;;4.37;3.33;;;18.00;99.90;;;;;;5076647;28;20235;-46
2023/07/20 08:45:45;;;;;;;5.17;3.53;;;18.10;99.90;;;;;;5078467;28;20257;-48
2023/07/20 08:48:14;;;;;;;5.63;4.00;;;18.10;99.90;;;;;;5078171;28;20168;-45
2023/07/20 08:50:41;;;;;;;5.93;5.43;;;18.20;99.90;;;;;;5076706;28;20199;-46
2023/07/20 08:53:08;;;;;;;7.77;7.10;;;18.20;99.90;;;;;;5078052;28;20235;-50
2023/07/20 08:55:35;;;;;;;10.10;9.10;;;18.20;99.90;;;;;;5077333;28;20888;-46
2023/07/20 08:58:02;;;;;;;7.77;6.83;;;18.20;99.90;;;;;;5076279;28;20176;-45
2023/07/20 09:00:31;;;;;;;9.87;9.17;;;17.90;99.90;;;;;;5077204;28;20178;-45
2023/07/20 09:02:59;;;;;;;5.20;4.70;;;17.70;99.90;;;;;;5077007;28;20183;-47
2023/07/20 09:05:25;;;;;;;8.03;6.13;;;17.50;99.90;;;;;;5076881;28;20210;-46
2023/07/20 09:07:52;;;;;;;7.00;5.87;;;17.40;99.90;;;;;;5077635;28;20168;-48
2023/07/20 09:10:25;;;;;;;9.97;8.30;;;17.30;99.90;;;;;;5077663;28;20165;-47
2023/07/20 09:12:51;;;;;;;9.93;8.33;;;17.40;99.90;;;;;;5078728;28;20183;-45
2023/07/20 09:15:19;;;;;;;11.20;10.40;;;17.30;99.90;;;;;;5079760;28;20175;-48
2023/07/20 09:17:49;;;;;;;13.23;12.17;;;17.40;99.90;;;;;;5078550;28;20164;-48
2023/07/20 09:20:17;;;;;;;13.63;9.87;;;17.40;99.90;;;;;;5077790;28;20172;-45
2023/07/20 09:22:43;;;;;;;12.90;11.67;;;17.50;99.90;;;;;;5079353;28;20171;-45
2023/07/20 09:25:20;;;;;;;10.03;7.30;;;17.60;99.90;;;;;;5096106;28;20196;-49
2023/07/20 09:27:47;;;;;;;6.23;5.63;;;17.70;99.90;;;;;;5075171;28;20193;-44
2023/07/20 09:30:15;;;;;;;6.33;5.73;;;17.90;99.90;;;;;;5074984;28;20168;-47
2023/07/20 09:32:43;;;;;;;9.27;5.80;;;17.90;99.90;;;;;;5075331;28;20229;-47
2023/07/20 09:35:20;;;;;;;7.90;4.73;;;17.90;99.90;;;;;;5076099;28;20179;-48
2023/07/20 09:37:48;;;;;;;5.97;5.43;;;17.90;99.90;;;;;;5093567;28;20233;-48
2023/07/20 09:40:17;;;;;;;5.03;4.50;;;17.80;99.90;;;;;;5076316;28;20496;-47
2023/07/20 09:42:43;;;;;;;5.10;4.67;;;17.60;99.90;;;;;;5093306;28;20168;-45
2023/07/20 09:45:09;;;;;;;5.97;4.67;;;17.60;99.90;;;;;;5073751;28;20232;-46
2023/07/20 09:47:37;;;;;;;4.83;4.53;;;17.50;99.90;;;;;;5075210;28;20165;-48
2023/07/20 09:50:10;;;;;;;5.87;4.90;;;17.50;99.90;;;;;;5076134;28;20171;-45
2023/07/20 09:52:44;;;;;;;4.00;3.73;;;17.50;99.90;;;;;;5077839;28;20698;-48
2023/07/20 09:55:11;;;;;;;6.07;4.70;;;17.50;99.90;;;;;;5076279;28;20165;-44
2023/07/20 09:57:38;;;;;;;5.17;4.80;;;17.50;99.90;;;;;;5076595;28;20478;-48
2023/07/20 10:00:11;;;;;;;5.13;4.77;;;17.60;99.90;;;;;;5076297;28;20175;-47
2023/07/20 10:02:46;;;;;;;5.67;5.27;;;17.60;99.90;;;;;;5060683;28;20599;-46
2023/07/20 10:05:14;;;;;;;9.87;9.10;;;17.60;99.90;;;;;;5076423;28;20220;-47
2023/07/20 10:07:50;;;;;;;10.13;9.53;;;17.70;99.90;;;;;;5075085;28;20179;-48
2023/07/20 10:10:18;;;;;;;14.23;13.40;;;17.80;99.90;;;;;;5074940;28;20179;-49
2023/07/20 10:12:52;;;;;;;14.93;13.97;;;17.70;99.90;;;;;;5075560;28;20798;-45
2023/07/20 10:15:36;;;;;;;14.90;13.80;;;17.80;99.90;;;;;;5074500;28;20181;-48
2023/07/20 10:18:17;;;;;;;7.40;6.77;;;17.90;99.90;;;;;;5074345;28;20169;-48
2023/07/20 10:20:44;;;;;;;15.30;14.47;;;17.90;99.90;;;;;;5071506;28;20178;-47
2023/07/20 10:23:10;;;;;;;14.80;13.80;;;18.00;99.90;;;;;;5072658;28;20175;-47
2023/07/20 10:25:37;;;;;;;12.40;11.60;;;18.10;99.90;;;;;;5073695;28;20192;-45
2023/07/20 10:28:06;;;;;;;15.73;14.67;;;18.20;99.90;;;;;;5072478;28;20203;-44
2023/07/20 10:30:34;;;;;;;5.20;4.83;;;18.20;99.90;;;;;;5072154;28;20245;-46
2023/07/20 10:33:02;;;;;;;5.20;2.83;;;18.30;99.90;;;;;;5071482;28;20199;-44
2023/07/20 10:35:28;;;;;;;4.93;2.27;;;18.50;99.90;;;;;;5072132;28;20165;-47
2023/07/20 10:37:55;;;;;;;4.90;2.80;;;18.60;99.90;;;;;;5071425;28;20186;-46
2023/07/20 10:40:32;;;;;;;4.30;2.33;;;18.60;99.90;;;;;;5073931;28;20188;-48
2023/07/20 10:43:03;;;;;;;3.20;2.60;;;18.60;99.90;;;;;;5073440;28;20176;-45
2023/07/20 10:45:38;;;;;;;4.37;2.83;;;18.50;99.90;;;;;;5096632;28;20199;-45
2023/07/20 10:48:05;;;;;;;7.70;3.00;;;18.50;99.90;;;;;;5076839;28;20172;-45
2023/07/20 10:50:33;;;;;;;3.63;3.40;;;18.50;99.90;;;;;;5077417;28;20172;-46
2023/07/20 10:53:13;;;;;;;6.13;5.73;;;18.50;99.90;;;;;;5076087;28;20172;-46
2023/07/20 10:55:40;;;;;;;6.30;5.87;;;18.60;99.90;;;;;;5093478;28;20177;-49
2023/07/20 10:58:15;;;;;;;6.93;6.13;;;18.60;99.90;;;;;;5075740;28;20738;-46
2023/07/20 11:01:00;;;;;;;17.87;16.67;;;18.70;99.90;;;;;;5092591;28;20612;-44
2023/07/20 11:03:35;;;;;;;10.13;9.47;;;18.70;99.90;;;;;;5074950;28;20177;-44
2023/07/20 11:06:20;;;;;;;6.53;5.97;;;18.50;99.90;;;;;;5076166;28;20284;-45
2023/07/20 11:08:47;;;;;;;10.30;5.23;;;18.30;99.90;;;;;;5074824;28;20175;-46
2023/07/20 11:11:26;;;;;;;7.20;5.97;;;18.30;99.90;;;;;;5074539;28;20613;-46
2023/07/20 11:14:00;;;;;;;5.13;4.47;;;18.30;99.90;;;;;;5075074;28;20172;-46
2023/07/20 11:16:36;;;;;;;7.37;6.77;;;18.30;99.90;;;;;;5072081;28;20229;-45
2023/07/20 11:19:04;;;;;;;6.03;4.70;;;18.30;99.90;;;;;;5093895;28;20195;-47
2023/07/20 11:21:36;;;;;;;6.23;4.03;;;18.40;99.90;;;;;;5078241;28;20172;-47
2023/07/20 11:24:07;;;;;;;6.23;4.97;;;18.40;99.90;;;;;;5077579;28;20182;-47
2023/07/20 11:26:47;;;;;;;9.00;8.37;;;18.40;99.90;;;;;;5076850;28;20410;-45
2023/07/20 11:29:13;;;;;;;14.13;12.93;;;18.50;99.90;;;;;;5093992;28;20176;-46
2023/07/20 11:31:40;;;;;;;24.73;23.37;;;18.50;99.90;;;;;;5076375;28;20175;-48
2023/07/20 11:34:10;;;;;;;17.07;15.87;;;18.50;99.90;;;;;;5075487;28;20164;-45
2023/07/20 11:36:35;;;;;;;6.87;6.37;;;18.70;99.90;;;;;;5092269;28;20836;-45
2023/07/20 11:39:04;;;;;;;4.40;4.10;;;18.80;99.90;;;;;;5073531;28;20274;-45
2023/07/20 11:41:30;;;;;;;4.53;4.17;;;18.80;99.90;;;;;;5072852;28;20175;-45
2023/07/20 11:43:57;;;;;;;7.07;6.60;;;18.90;99.90;;;;;;5063474;28;20235;-45
2023/07/20 11:46:23;;;;;;;8.97;8.57;;;19.00;99.90;;;;;;5053753;28;20250;-46
2023/07/20 11:48:48;;;;;;;25.47;24.23;;;19.10;99.90;;;;;;5070748;28;20157;-50
2023/07/20 11:51:16;;;;;;;19.10;18.10;;;19.20;99.90;;;;;;5053226;28;20176;-47
2023/07/20 11:53:45;;;;;;;66.43;63.07;;;19.30;99.90;;;;;;5073269;28;20164;-49
2023/07/20 11:56:11;;;;;;;2.77;1.53;;;19.60;99.90;;;;;;5058730;28;20183;-49
2023/07/20 11:58:42;;;;;;;4.03;3.83;;;19.80;99.90;;;;;;5058889;28;20169;-49
2023/07/20 12:01:08;;;;;;;5.33;4.93;;;19.80;99.90;;;;;;5058623;28;20437;-44
2023/07/20 12:03:34;;;;;;;3.70;3.43;;;19.80;99.90;;;;;;5059372;28;20164;-47
2023/07/20 12:06:08;;;;;;;1.93;1.70;;;19.90;99.90;;;;;;5060152;28;20200;-48
2023/07/20 12:08:34;;;;;;;1.70;1.60;;;19.90;99.90;;;;;;5059768;28;20186;-45
2023/07/20 12:11:00;;;;;;;3.17;1.80;;;19.90;99.90;;;;;;5059622;28;20176;-47
2023/07/20 12:13:43;;;;;;;2.30;2.10;;;19.90;99.90;;;;;;5058841;28;20169;-48
2023/07/20 12:16:16;;;;;;;2.77;1.93;;;20.00;99.90;;;;;;5058351;28;20180;-45
2023/07/20 12:18:43;;;;;;;3.73;3.53;;;20.00;99.90;;;;;;5075940;28;20161;-46
2023/07/20 12:21:09;;;;;;;5.33;4.93;;;20.10;99.90;;;;;;5075160;28;20179;-45
2023/07/20 12:23:37;;;;;;;6.07;5.60;;;20.20;99.90;;;;;;5056291;28;20206;-45
2023/07/20 12:26:03;;;;;;;6.73;6.30;;;20.20;99.90;;;;;;5055450;28;20201;-47
2023/07/20 12:28:29;;;;;;;8.97;8.17;;;20.10;99.90;;;;;;5056210;28;20184;-47
2023/07/20 12:30:58;;;;;;;7.43;7.03;;;20.10;99.90;;;;;;5055411;28;20200;-46
2023/07/20 12:33:24;;;;;;;5.60;5.10;;;19.90;99.90;;;;;;5054907;28;20572;-47
2023/07/20 12:35:51;;;;;;;7.27;6.53;;;19.80;99.90;;;;;;5054204;28;20602;-45
2023/07/20 12:38:16;;;;;;;6.17;5.47;;;19.80;99.90;;;;;;5070471;28;20161;-46
2023/07/20 12:40:42;;;;;;;9.13;8.43;;;19.70;99.90;;;;;;5070183;28;20165;-46